Time;durP1;ratioP1;P1;durP2;ratioP2;P2;SDS_P1;SDS_P2;PMS_P1;PMS_P2;Temp;Humidity;BMP_temperature;BMP_pressure;BME280_temperature;BME280_humidity;BME280_pressure;Samples;Min_cycle;Max_cycle;Signal;HPM_P1;HPM_P2
2023/10/10 00:01:00;;;;;;;4.07;2.92;;;;;;;12.82;100.00;102012.25;4993736;28;20027;-85
2023/10/10 00:03:27;;;;;;;4.53;3.10;;;;;;;12.83;100.00;102005.28;4993498;28;20032;-84
2023/10/10 00:05:57;;;;;;;4.32;3.00;;;;;;;12.83;100.00;102005.28;4993820;28;20037;-84
2023/10/10 00:08:33;;;;;;;5.60;3.17;;;;;;;12.83;100.00;102008.72;4993011;28;20030;-85
2023/10/10 00:10:59;;;;;;;5.45;3.40;;;;;;;12.84;100.00;102007.00;4993510;28;20050;-84
2023/10/10 00:13:24;;;;;;;5.83;3.50;;;;;;;12.78;100.00;102010.53;4993491;28;20073;-84
2023/10/10 00:15:51;;;;;;;6.03;3.40;;;;;;;12.83;100.00;102011.34;5100997;23;20045;-85
2023/10/10 00:18:29;;;;;;;6.10;3.65;;;;;;;12.80;100.00;102005.28;5032871;28;20086;-84
2023/10/10 00:21:07;;;;;;;5.22;3.45;;;;;;;12.81;100.00;102013.13;5033165;28;20028;-84
2023/10/10 00:23:41;;;;;;;5.03;3.25;;;;;;;12.79;100.00;102016.59;5032277;28;20048;-84
2023/10/10 00:26:11;;;;;;;5.95;3.40;;;;;;;12.79;100.00;102014.84;5033353;28;20127;-84
2023/10/10 00:28:38;;;;;;;5.40;3.30;;;;;;;12.78;100.00;102007.03;5629911;23;20054;-84
2023/10/10 00:31:03;;;;;;;4.25;2.80;;;;;;;12.73;100.00;102006.22;5032799;28;20040;-84
2023/10/10 00:33:31;;;;;;;4.30;2.80;;;;;;;12.74;100.00;102005.34;5032803;28;20057;-84
2023/10/10 00:35:57;;;;;;;3.83;2.80;;;;;;;12.70;100.00;102007.09;5032098;28;20417;-84
2023/10/10 00:38:25;;;;;;;3.63;2.92;;;;;;;12.68;100.00;102001.03;5032114;28;20041;-84
2023/10/10 00:40:51;;;;;;;4.32;3.20;;;;;;;12.70;100.00;102007.09;5285220;23;20049;-84
2023/10/10 00:43:22;;;;;;;4.37;3.10;;;;;;;12.69;100.00;102010.56;5031778;28;20076;-84
2023/10/10 00:45:52;;;;;;;5.32;3.40;;;;;;;12.69;100.00;102010.56;5033171;28;20029;-84
2023/10/10 00:53:28;;;;;;;6.05;3.40;;;;;;;12.64;100.00;102002.78;5259745;23;20054;-84
2023/10/10 00:55:56;;;;;;;5.83;3.50;;;;;;;12.64;100.00;102001.91;5032355;28;20030;-83
2023/10/10 00:58:35;;;;;;;4.72;3.20;;;;;;;12.61;100.00;102001.94;5031717;28;20167;-84
2023/10/10 01:01:05;;;;;;;4.75;3.10;;;;;;;12.64;100.00;101996.69;5032505;28;20026;-84
2023/10/10 01:03:32;;;;;;;4.57;3.10;;;;;;;12.61;100.00;101994.97;5031967;28;20021;-84
2023/10/10 01:06:04;;;;;;;5.75;3.53;;;;;;;12.57;100.00;101982.00;5032712;28;20018;-84
2023/10/10 01:08:49;;;;;;;4.80;3.22;;;;;;;12.58;100.00;101981.13;5032386;28;20590;-83
2023/10/10 01:11:16;;;;;;;5.97;3.60;;;;;;;12.54;100.00;101975.06;5031744;28;20026;-83
2023/10/10 01:13:41;;;;;;;4.95;3.40;;;;;;;12.52;100.00;101976.81;5032335;28;20022;-84
2023/10/10 01:16:08;;;;;;;7.03;3.87;;;;;;;12.51;100.00;101975.06;5031389;28;20390;-83
2023/10/10 01:18:39;;;;;;;5.55;3.33;;;;;;;12.51;100.00;101970.72;5031626;28;20492;-84
2023/10/10 01:21:05;;;;;;;6.63;3.63;;;;;;;12.50;100.00;101968.13;5032141;28;20227;-83
2023/10/10 01:23:33;;;;;;;6.13;3.83;;;;;;;12.50;100.00;101973.34;5032496;28;20142;-83
2023/10/10 01:26:06;;;;;;;7.47;4.22;;;;;;;12.52;100.00;101972.44;5031581;28;20021;-84
2023/10/10 01:28:34;;;;;;;7.25;4.00;;;;;;;12.52;100.00;101967.25;5032529;28;20029;-84
2023/10/10 01:31:10;;;;;;;6.47;3.70;;;;;;;12.54;100.00;101974.19;5032439;28;20029;-84
2023/10/10 01:33:36;;;;;;;8.43;4.27;;;;;;;12.52;100.00;101967.25;5031199;28;20300;-83
2023/10/10 01:36:12;;;;;;;7.07;3.95;;;;;;;12.51;100.00;101960.31;5032438;28;20028;-83
2023/10/10 01:38:44;;;;;;;7.10;4.20;;;;;;;12.50;100.00;101962.94;5031906;28;20029;-83
2023/10/10 01:41:21;;;;;;;7.85;4.10;;;;;;;12.45;100.00;101947.34;5032572;28;20040;-84
2023/10/10 01:43:53;;;;;;;8.27;4.53;;;;;;;12.48;100.00;101946.44;5032579;28;20084;-84
2023/10/10 01:49:43;;;;;;;6.03;3.80;;;;;;;12.47;100.00;101942.09;5010164;28;20036;-83
2023/10/10 01:52:17;;;;;;;5.85;3.60;;;;;;;12.44;100.00;101948.19;5039558;28;20045;-84
2023/10/10 01:54:45;;;;;;;6.13;3.88;;;;;;;12.42;100.00;101944.75;5054448;28;20029;-84
2023/10/10 01:57:21;;;;;;;5.30;3.55;;;;;;;12.40;100.00;101936.06;5054830;28;20028;-84
2023/10/10 02:00:19;;;;;;;6.07;3.67;;;;;;;12.39;100.00;101933.47;5035528;28;20033;-83
2023/10/10 02:02:55;;;;;;;5.57;3.50;;;;;;;12.32;100.00;101920.50;5054821;28;20029;-83
2023/10/10 02:07:57;;;;;;;6.25;3.60;;;;;;;12.30;100.00;101918.75;5054833;28;20033;-83
2023/10/10 02:10:26;;;;;;;5.85;3.65;;;;;;;12.26;100.00;101911.88;5050339;22;20056;-84
2023/10/10 02:12:52;;;;;;;7.25;4.13;;;;;;;12.26;100.00;101917.91;5035327;28;20098;-84
2023/10/10 02:15:26;;;;;;;5.17;3.40;;;;;;;12.26;100.00;101917.06;5034481;28;20466;-84
2023/10/10 02:17:56;;;;;;;5.93;3.67;;;;;;;12.24;100.00;101911.84;5035250;28;20026;-84
2023/10/10 02:22:53;;;;;;;5.70;3.67;;;;;;;12.19;100.00;101911.03;5034443;28;20417;-83
2023/10/10 02:28:03;;;;;;;6.72;3.88;;;;;;;12.19;100.00;101908.44;5034447;28;20033;-83
2023/10/10 02:30:38;;;;;;;5.97;4.03;;;;;;;12.15;100.00;101899.78;5035094;28;20025;-83
2023/10/10 02:35:57;;;;;;;6.22;3.83;;;;;;;12.11;100.00;101892.84;5034022;28;20104;-83
2023/10/10 02:38:31;;;;;;;5.70;3.47;;;;;;;12.16;100.00;101898.88;5034613;28;20056;-83
2023/10/10 02:44:09;;;;;;;6.13;3.92;;;;;;;12.13;100.00;101893.72;5034646;28;20544;-83
2023/10/10 02:46:40;;;;;;;6.47;3.90;;;;;;;12.12;100.00;101898.91;5034797;28;20021;-84
2023/10/10 02:49:22;;;;;;;5.38;3.90;;;;;;;12.12;100.00;101894.59;5033648;28;20152;-83
2023/10/10 02:51:55;;;;;;;6.93;4.22;;;;;;;12.11;100.00;101895.44;5035016;28;20030;-83
2023/10/10 02:54:34;;;;;;;7.07;4.30;;;;;;;12.09;100.00;101899.78;5034260;28;20478;-83
2023/10/10 02:57:26;;;;;;;6.72;4.15;;;;;;;12.09;100.00;101899.78;5033010;28;20112;-83
2023/10/10 02:59:50;;;;;;;7.32;4.10;;;;;;;12.07;100.00;101890.28;5033395;28;20032;-83
2023/10/10 03:02:19;;;;;;;6.68;4.18;;;;;;;12.03;100.00;101894.63;5034168;28;20220;-84
2023/10/10 03:07:29;;;;;;;6.32;4.00;;;;;;;12.03;100.00;101892.03;5034078;28;20481;-83
2023/10/10 03:12:42;;;;;;;6.53;4.03;;;;;;;11.99;100.00;101893.75;5034725;28;20040;-83
2023/10/10 03:15:27;;;;;;;7.90;4.23;;;;;;;11.99;100.00;101898.09;5034161;28;20458;-83
2023/10/10 03:21:25;;;;;;;6.50;4.00;;;;;;;11.89;100.00;101890.31;5034307;28;20053;-83
2023/10/10 03:23:32;;;;;;;6.47;4.20;;;;;;;11.88;100.00;101898.97;5022982;28;20029;-83
2023/10/10 03:26:04;;;;;;;5.97;3.90;;;;;;;11.84;100.00;101893.81;5024452;28;20057;-83
2023/10/10 03:28:33;;;;;;;6.03;3.72;;;;;;;11.86;100.00;101898.13;5014085;28;20478;-83
2023/10/10 05:23:29;;;;;;;6.10;3.97;;;;;;;11.82;100.00;101893.78;5013771;28;20030;-83
2023/10/10 05:25:51;;;;;;;8.10;4.38;;;;;;;11.63;100.00;101828.00;5035237;28;20037;-81
2023/10/10 05:28:18;;;;;;;6.77;3.87;;;;;;;11.62;100.00;101828.00;5036065;28;20029;-82
2023/10/10 05:30:45;;;;;;;8.63;4.45;;;;;;;11.59;100.00;101832.34;5035354;28;20096;-81
2023/10/10 05:33:12;;;;;;;6.40;3.90;;;;;;;11.56;100.00;101832.34;5036034;28;20025;-82
2023/10/10 05:35:43;;;;;;;6.38;3.95;;;;;;;11.56;100.00;101829.75;5035810;28;20048;-82
2023/10/10 05:38:09;;;;;;;7.28;4.00;;;;;;;11.54;100.00;101823.69;5029936;28;20116;-80
2023/10/10 05:40:38;;;;;;;7.13;4.23;;;;;;;11.52;100.00;101829.78;5035893;28;20040;-82
2023/10/10 05:43:09;;;;;;;5.47;3.50;;;;;;;11.53;100.00;101815.91;5035804;28;20101;-82
2023/10/10 05:45:37;;;;;;;5.47;3.30;;;;;;;11.56;100.00;101821.06;5035019;28;20080;-81
2023/10/10 05:48:05;;;;;;;5.78;3.50;;;;;;;11.55;100.00;101815.03;5035260;28;20029;-80
2023/10/10 05:50:32;;;;;;;4.55;2.90;;;;;;;11.58;100.00;101811.53;5035859;28;20105;-80
2023/10/10 05:52:58;;;;;;;4.82;3.10;;;;;;;11.59;100.00;101821.94;5035108;28;20033;-80
2023/10/10 05:55:23;;;;;;;4.30;2.87;;;;;;;11.59;100.00;101827.16;5035315;28;20378;-84
2023/10/10 05:57:48;;;;;;;4.27;3.10;;;;;;;11.61;100.00;101823.66;5035630;28;20075;-84
2023/10/10 06:00:18;;;;;;;4.70;3.27;;;;;;;11.59;100.00;101823.66;5034578;28;20112;-84
2023/10/10 06:02:47;;;;;;;8.65;4.45;;;;;;;11.61;100.00;101823.66;5035845;28;20466;-87
2023/10/10 06:05:23;;;;;;;9.82;4.85;;;;;;;11.60;100.00;101820.19;5041743;22;20060;-87
2023/10/10 06:07:54;;;;;;;6.20;3.78;;;;;;;11.49;100.00;101806.38;5034334;28;20049;-82
2023/10/10 06:10:28;;;;;;;8.70;4.47;;;;;;;11.55;100.00;101809.81;5034014;28;20033;-82
2023/10/10 06:12:55;;;;;;;8.77;4.47;;;;;;;11.61;100.00;101821.06;5032699;28;20014;-82
2023/10/10 06:15:20;;;;;;;8.05;4.43;;;;;;;11.54;100.00;101809.84;5023488;28;20390;-82
2023/10/10 06:18:47;;;;;;;8.50;4.30;;;;;;;11.62;100.00;101817.59;5034553;28;20037;-83
2023/10/10 06:21:05;;;;;;;7.05;3.92;;;;;;;11.64;100.00;101821.06;5022804;28;20021;-83
2023/10/10 06:23:32;;;;;;;6.72;3.60;;;;;;;11.65;100.00;101815.84;5034776;28;20040;-83
2023/10/10 06:25:58;;;;;;;8.82;4.63;;;;;;;11.66;100.00;101820.16;5035314;28;20037;-83
2023/10/10 06:28:26;;;;;;;6.00;3.97;;;;;;;11.70;100.00;101824.50;5033888;28;20038;-83
2023/10/10 06:31:43;;;;;;;5.57;3.58;;;;;;;11.72;100.00;101820.16;5027083;28;20037;-83
2023/10/10 06:37:10;;;;;;;8.73;4.93;;;;;;;11.73;100.00;101810.59;4983539;28;20471;-82
2023/10/10 06:39:53;;;;;;;10.68;5.30;;;;;;;11.71;100.00;101801.94;5034967;28;20466;-82
2023/10/10 06:42:27;;;;;;;7.82;4.25;;;;;;;11.77;100.00;101809.72;5034062;28;20082;-89
2023/10/10 06:44:53;;;;;;;7.05;4.05;;;;;;;11.79;100.00;101805.41;5035075;28;20489;-84
2023/10/10 06:47:19;;;;;;;8.20;4.20;;;;;;;11.83;100.00;101801.03;5033320;22;20431;-85
2023/10/10 06:49:56;;;;;;;5.40;3.50;;;;;;;11.88;100.00;101807.94;5033992;28;20162;-87
2023/10/10 06:52:23;;;;;;;5.30;3.38;;;;;;;11.91;100.00;101809.66;5034267;28;20083;-87
2023/10/10 06:54:55;;;;;;;4.32;3.05;;;;;;;11.96;100.00;101815.72;5034501;28;20026;-81
2023/10/10 06:57:41;;;;;;;5.13;3.33;;;;;;;12.01;100.00;101813.13;5033578;28;20437;-83
2023/10/10 07:02:47;;;;;;;5.18;3.15;;;;;;;12.08;100.00;101808.75;5033797;28;20273;-81
2023/10/10 07:05:15;;;;;;;7.28;4.00;;;;;;;12.13;100.00;101812.16;5034241;28;20363;-81
2023/10/10 07:07:58;;;;;;;6.03;3.60;;;;;;;12.17;100.00;101806.91;5032480;28;20321;-81
2023/10/10 07:10:33;;;;;;;6.00;3.60;;;;;;;12.22;100.00;101811.25;5033612;28;20359;-82
2023/10/10 07:13:03;;;;;;;5.97;3.35;;;;;;;12.25;100.00;101806.03;5034209;28;20021;-82
2023/10/10 07:15:34;;;;;;;4.93;3.20;;;;;;;12.33;100.00;101804.22;5034458;28;20033;-81
2023/10/10 07:18:09;;;;;;;7.65;3.95;;;;;;;12.39;100.00;101798.97;5033547;28;20351;-82
2023/10/10 07:23:22;;;;;;;7.07;3.90;;;;;;;12.48;100.00;101792.81;5033321;28;20052;-82
2023/10/10 07:26:01;;;;;;;10.33;5.13;;;;;;;12.56;100.00;101800.59;5034237;28;20022;-82
2023/10/10 07:28:27;;;;;;;9.90;4.75;;;;;;;12.59;100.00;101797.97;5033688;28;20150;-82
2023/10/10 07:30:53;;;;;;;7.68;4.05;;;;;;;12.66;100.00;101802.22;5033821;28;20052;-82
2023/10/10 07:33:29;;;;;;;9.15;4.65;;;;;;;12.73;100.00;101798.69;5033987;28;20072;-82
2023/10/10 07:35:55;;;;;;;7.57;4.10;;;;;;;12.78;100.00;101796.03;5033918;28;20080;-82
2023/10/10 07:38:27;;;;;;;7.53;3.97;;;;;;;12.84;100.00;101798.59;5033118;28;20068;-82
2023/10/10 07:40:53;;;;;;;9.77;4.72;;;;;;;12.87;100.00;101795.97;5033755;28;20033;-82
2023/10/10 07:43:20;;;;;;;14.10;6.03;;;;;;;12.92;100.00;101795.94;5033103;28;20029;-82
2023/10/10 07:45:47;;;;;;;10.98;5.15;;;;;;;12.93;100.00;101789.84;5032274;28;20286;-82
2023/10/10 07:50:47;;;;;;;10.40;4.77;;;;;;;13.02;100.00;101786.25;5033811;28;20463;-82
2023/10/10 07:53:14;;;;;;;11.68;5.63;;;;;;;13.03;100.00;101786.25;5032022;28;20025;-82
2023/10/10 07:58:27;;;;;;;12.80;6.00;;;;;;;13.12;100.00;101793.09;5032438;28;20025;-82
2023/10/10 08:01:03;;;;;;;10.10;5.05;;;;;;;13.18;100.00;101797.38;5033624;28;20022;-82
2023/10/10 08:03:31;;;;;;;8.07;4.72;;;;;;;13.24;100.00;101789.50;5033350;28;20469;-82
2023/10/10 08:05:56;;;;;;;11.13;5.18;;;;;;;13.28;100.00;101793.81;5032652;28;20021;-82
2023/10/10 08:08:25;;;;;;;13.20;6.53;;;;;;;13.35;100.00;101795.47;5033092;28;20049;-82
2023/10/10 08:10:53;;;;;;;11.85;5.70;;;;;;;13.43;100.00;101795.41;5033265;28;20030;-82
2023/10/10 08:13:20;;;;;;;11.10;5.07;;;;;;;13.53;100.00;101801.34;5032154;28;20032;-82
2023/10/10 08:21:10;;;;;;;8.65;4.43;;;;;;;13.77;100.00;101797.59;5032477;28;20463;-83
2023/10/10 08:23:42;;;;;;;9.70;4.45;;;;;;;13.86;100.00;101788.75;5032944;28;20488;-83
2023/10/10 08:26:17;;;;;;;16.17;7.88;;;;;;;13.92;100.00;101795.63;5032812;28;20100;-83
2023/10/10 08:28:46;;;;;;;12.57;6.20;;;;;;;13.99;100.00;101794.69;5031860;28;20034;-82
2023/10/10 08:31:13;;;;;;;10.77;5.65;;;;;;;14.05;100.00;101794.56;5024422;28;20083;-83
2023/10/10 08:33:39;;;;;;;;;;;;;;;14.11;100.00;101793.63;5032355;28;20478;-83
2023/10/10 08:36:04;;;;;;;12.32;5.70;;;;;;;14.15;100.00;101785.72;5032641;28;19920;-83
2023/10/10 08:38:30;;;;;;;11.80;6.07;;;;;;;14.21;100.00;101795.22;5021711;28;20037;-83
2023/10/10 08:41:08;;;;;;;11.40;5.60;;;;;;;14.24;100.00;101789.94;5012023;28;20051;-82
2023/10/10 08:43:35;;;;;;;10.70;5.40;;;;;;;14.35;100.00;101795.88;5012612;28;20049;-83
2023/10/10 08:46:08;;;;;;;8.73;4.60;;;;;;;14.41;100.00;101799.28;5012037;28;20034;-83
2023/10/10 08:48:37;;;;;;;12.77;5.78;;;;;;;14.48;100.00;101795.66;5011797;28;20439;-83
2023/10/10 08:51:04;;;;;;;9.07;4.95;;;;;;;14.54;100.00;101798.16;5012749;28;20030;-83
2023/10/10 08:53:36;;;;;;;7.85;4.50;;;;;;;14.59;100.00;101796.34;5001884;28;20038;-82
2023/10/10 08:56:03;;;;;;;12.38;5.70;;;;;;;14.71;100.00;101804.91;5011360;28;20029;-83
2023/10/10 08:58:31;;;;;;;;;;;;;;;14.79;100.00;101808.22;5007950;28;20029;-82
2023/10/10 09:00:58;;;;;;;16.50;7.30;;;;;;;14.86;100.00;101809.84;5036342;28;19990;-83
2023/10/10 09:03:23;;;;;;;16.67;7.95;;;;;;;14.89;100.00;101790.66;5035922;28;20398;-83
2023/10/10 09:05:48;;;;;;;12.53;5.77;;;;;;;15.00;100.00;101791.31;5036430;28;20018;-82
2023/10/10 09:08:16;;;;;;;13.67;6.53;;;;;;;15.05;100.00;101794.69;5035247;28;20041;-83
2023/10/10 09:10:47;;;;;;;10.52;5.10;;;;;;;15.24;100.00;101799.59;5035908;28;20061;-83
2023/10/10 09:13:13;;;;;;;13.30;6.07;;;;;;;15.34;100.00;101800.25;5036609;28;20118;-82
2023/10/10 09:15:54;;;;;;;12.98;5.90;;;;;;;15.48;100.00;101805.22;5036780;28;20025;-83
2023/10/10 09:18:23;;;;;;;14.10;6.25;;;;;;;15.56;100.00;101806.75;5036474;28;20029;-83
2023/10/10 09:20:55;;;;;;;12.02;6.20;;;;;;;15.69;100.00;101801.28;5036487;28;20025;-83
2023/10/10 09:23:28;;;;;;;11.73;6.18;;;;;;;15.81;100.00;101790.53;5018994;28;20059;-83
2023/10/10 09:26:30;;;;;;;9.90;4.90;;;;;;;15.93;100.00;101786.81;5016280;28;20072;-83
2023/10/10 09:29:15;;;;;;;13.95;6.40;;;;;;;16.05;100.00;101794.38;5015598;28;20088;-83
2023/10/10 09:31:45;;;;;;;13.32;6.60;;;;;;;16.21;100.00;101800.13;5015991;28;20032;-83
2023/10/10 09:34:12;;;;;;;10.35;5.10;;;;;;;16.34;100.00;101794.59;5016466;28;20069;-83
2023/10/10 09:36:39;;;;;;;11.05;5.15;;;;;;;16.45;100.00;101797.81;5016266;28;20485;-83
2023/10/10 09:39:09;;;;;;;12.50;5.63;;;;;;;16.59;100.00;101800.09;5015564;28;20032;-83
2023/10/10 09:49:44;;;;;;;8.02;4.10;;;;;;;17.10;99.44;101817.16;5034880;28;20124;-83
2023/10/10 09:57:39;;;;;;;5.07;3.22;;;;;;;17.50;98.93;101809.94;5036195;28;20045;-83
2023/10/10 10:00:30;;;;;;;7.72;3.90;;;;;;;17.64;96.04;101806.03;5034576;28;20059;-83
2023/10/10 10:02:57;;;;;;;5.32;3.40;;;;;;;17.81;97.47;101795.88;5035369;28;20040;-83
2023/10/10 10:05:28;;;;;;;4.50;2.90;;;;;;;17.96;97.17;101796.31;5034640;28;20033;-83
2023/10/10 10:08:21;;;;;;;4.35;2.75;;;;;;;18.18;97.73;101796.53;5035906;28;20025;-83
2023/10/10 10:11:11;;;;;;;5.53;3.38;;;;;;;18.34;88.32;101799.50;5035321;28;20021;-84
2023/10/10 10:13:58;;;;;;;10.73;5.10;;;;;;;18.46;92.55;101804.38;5034926;28;20021;-83
2023/10/10 10:16:39;;;;;;;7.63;3.90;;;;;;;18.65;92.84;101801.09;5035473;28;20367;-84
2023/10/10 10:19:14;;;;;;;7.10;3.47;;;;;;;18.81;94.35;101801.44;5034604;28;20026;-83
2023/10/10 10:21:52;;;;;;;5.05;3.08;;;;;;;18.81;87.56;101790.91;5035273;28;20100;-83
2023/10/10 10:24:30;;;;;;;7.40;3.50;;;;;;;18.91;89.69;101797.59;5035279;28;20108;-83
2023/10/10 10:30:18;;;;;;;11.25;5.35;;;;;;;19.14;83.20;101801.19;5035356;28;20049;-84
2023/10/10 10:32:55;;;;;;;11.20;5.72;;;;;;;19.20;87.16;101790.47;5035237;28;20064;-83
2023/10/10 10:35:24;;;;;;;7.53;3.95;;;;;;;19.23;89.10;101795.63;5034182;28;20034;-84
2023/10/10 10:37:58;;;;;;;7.38;3.78;;;;;;;19.30;87.88;101785.72;5035116;28;20026;-84
2023/10/10 10:43:04;;;;;;;6.57;3.78;;;;;;;19.49;84.94;101777.97;5034702;28;20040;-83
2023/10/10 10:45:36;;;;;;;6.87;3.67;;;;;;;19.65;85.43;101777.38;5035094;28;20470;-83
2023/10/10 10:48:07;;;;;;;8.60;4.50;;;;;;;19.75;85.07;101778.75;5033690;28;20060;-84
2023/10/10 10:50:40;;;;;;;6.43;3.65;;;;;;;19.84;79.74;101775.75;5034774;28;20394;-84
2023/10/10 10:53:20;;;;;;;8.57;4.10;;;;;;;19.98;87.45;101772.63;5034220;28;20028;-84
2023/10/10 10:55:57;;;;;;;6.50;3.67;;;;;;;20.05;85.81;101771.44;5034025;28;20025;-84
2023/10/10 10:58:26;;;;;;;5.32;3.20;;;;;;;20.20;86.56;101766.47;5034395;28;20022;-83
2023/10/10 11:00:57;;;;;;;5.43;3.10;;;;;;;20.30;85.70;101774.81;5034472;28;20026;-83
2023/10/10 11:03:36;;;;;;;5.18;3.00;;;;;;;20.44;85.49;101777.75;5033885;28;20029;-83
2023/10/10 11:06:09;;;;;;;5.43;3.35;;;;;;;20.49;82.10;101775.75;5034674;28;20025;-84
2023/10/10 11:14:00;;;;;;;9.75;4.10;;;;;;;20.67;77.95;101763.56;5034442;28;20063;-80
2023/10/10 11:16:39;;;;;;;9.38;4.55;;;;;;;20.71;75.46;101756.41;5033409;28;20086;-80
2023/10/10 11:19:19;;;;;;;9.82;4.90;;;;;;;20.74;73.07;101751.00;5034164;28;20514;-80
2023/10/10 11:21:53;;;;;;;9.35;4.55;;;;;;;20.79;78.80;101750.81;5032756;28;20033;-80
2023/10/10 11:24:23;;;;;;;10.45;4.90;;;;;;;20.80;75.37;101749.88;5033204;28;20473;-81
2023/10/10 11:30:00;;;;;;;7.22;3.72;;;;;;;20.92;77.00;101738.78;5033218;28;20031;-74
2023/10/10 11:32:36;;;;;;;9.93;4.50;;;;;;;21.00;77.28;101745.53;5033724;28;20053;-75
2023/10/10 11:35:17;;;;;;;8.70;4.50;;;;;;;21.03;76.48;101743.59;5033790;28;20029;-81
2023/10/10 11:37:58;;;;;;;8.07;3.92;;;;;;;21.07;77.33;101739.03;5033196;28;20040;-82
2023/10/10 11:43:04;;;;;;;10.30;4.63;;;;;;;21.09;74.58;101730.09;5033343;28;20036;-82
2023/10/10 11:45:39;;;;;;;9.15;4.10;;;;;;;21.13;75.03;101729.06;5032380;28;20108;-81
2023/10/10 11:48:15;;;;;;;10.10;4.43;;;;;;;21.14;74.57;101724.63;5032508;28;20049;-82
2023/10/10 11:50:46;;;;;;;6.17;3.70;;;;;;;21.17;77.14;101719.22;5033213;28;20036;-81
2023/10/10 11:53:19;;;;;;;7.13;3.92;;;;;;;21.18;75.39;101714.78;5033259;28;20037;-81
2023/10/10 11:55:45;;;;;;;10.25;4.38;;;;;;;21.17;71.05;101711.28;5033808;28;20022;-81
2023/10/10 11:58:16;;;;;;;7.88;3.70;;;;;;;21.18;73.61;101706.84;5032862;28;20109;-81
2023/10/10 12:00:43;;;;;;;8.23;3.70;;;;;;;21.19;72.66;101705.91;5033691;28;20029;-80
2023/10/10 12:03:23;;;;;;;10.40;4.18;;;;;;;21.17;73.51;101707.81;5032887;28;20056;-79
2023/10/10 12:05:49;;;;;;;9.65;4.35;;;;;;;21.14;71.94;101709.66;5032624;28;20040;-81
2023/10/10 12:08:15;;;;;;;9.70;4.15;;;;;;;21.17;73.19;101710.44;5033325;28;20105;-81
2023/10/10 12:10:47;;;;;;;8.18;3.90;;;;;;;21.14;72.96;101700.88;5033261;28;20140;-81
2023/10/10 12:13:33;;;;;;;8.18;4.00;;;;;;;21.15;70.36;101707.84;5029416;28;20045;-82
2023/10/10 12:16:01;;;;;;;9.80;3.90;;;;;;;21.16;73.03;101706.94;5032385;28;20038;-82
2023/10/10 12:18:30;;;;;;;8.05;4.13;;;;;;;21.17;72.83;101708.66;5032008;28;20044;-79
2023/10/10 12:21:01;;;;;;;7.20;3.55;;;;;;;21.19;73.86;101706.78;5031844;28;20075;-81
2023/10/10 12:23:27;;;;;;;9.52;4.40;;;;;;;21.19;70.70;101700.66;5030887;28;20474;-81
2023/10/10 12:25:54;;;;;;;7.32;3.35;;;;;;;21.21;72.98;101699.66;5024752;28;20028;-81
2023/10/10 12:28:20;;;;;;;7.18;3.45;;;;;;;21.24;74.41;101693.38;5013087;28;20101;-81
2023/10/10 12:30:45;;;;;;;8.38;3.83;;;;;;;21.22;73.93;101689.94;5028004;28;20021;-81
2023/10/10 12:33:17;;;;;;;6.00;3.07;;;;;;;21.24;73.35;101686.31;5032254;28;20036;-81
2023/10/10 12:35:47;;;;;;;4.68;2.80;;;;;;;21.27;74.27;101685.31;5032903;28;20478;-81
2023/10/10 12:38:20;;;;;;;6.38;3.35;;;;;;;21.29;71.84;101680.81;5032752;28;20029;-80
2023/10/10 12:40:50;;;;;;;7.55;3.70;;;;;;;21.29;67.14;101683.44;5032228;28;20025;-81
2023/10/10 12:43:16;;;;;;;4.88;3.22;;;;;;;21.28;72.02;101676.44;5015909;28;20030;-81
2023/10/10 12:45:41;;;;;;;6.60;3.40;;;;;;;21.25;70.68;101672.19;5013273;28;20026;-81
2023/10/10 12:48:20;;;;;;;6.30;3.40;;;;;;;21.24;70.92;101672.25;5011937;28;20042;-80
2023/10/10 12:50:52;;;;;;;5.28;3.00;;;;;;;21.25;70.02;101661.63;5013217;28;20036;-80
2023/10/10 12:53:19;;;;;;;4.30;2.70;;;;;;;21.34;72.11;101675.31;5011989;28;20026;-80
2023/10/10 12:55:49;;;;;;;3.15;2.33;;;;;;;21.35;72.21;101669.97;5021919;28;20061;-80
2023/10/10 12:58:22;;;;;;;4.55;2.75;;;;;;;21.35;68.65;101669.97;5032219;28;20430;-80
2023/10/10 13:00:51;;;;;;;6.60;2.97;;;;;;;21.35;64.20;101669.09;5032249;28;20029;-81
2023/10/10 13:03:27;;;;;;;5.45;3.05;;;;;;;21.36;64.96;101671.69;5032278;28;20021;-80
2023/10/10 13:05:54;;;;;;;6.05;3.00;;;;;;;21.36;67.19;101663.75;5032205;28;20026;-80
2023/10/10 13:08:22;;;;;;;7.82;3.20;;;;;;;21.38;64.82;101663.69;5031614;28;20038;-80
2023/10/10 13:11:00;;;;;;;5.18;2.80;;;;;;;21.38;66.14;101661.03;5031759;28;20466;-81
2023/10/10 13:13:31;;;;;;;4.82;2.60;;;;;;;21.41;70.82;101664.38;5031964;28;20084;-80
2023/10/10 13:18:41;;;;;;;4.63;2.63;;;;;;;21.47;65.98;101671.16;5032477;28;20040;-80
2023/10/10 13:21:07;;;;;;;4.13;2.30;;;;;;;21.49;67.86;101671.94;5031709;28;20030;-81
2023/10/10 13:23:35;;;;;;;4.50;2.70;;;;;;;21.51;65.18;101671.84;5021992;28;20479;-81
2023/10/10 13:26:06;;;;;;;5.50;2.97;;;;;;;21.58;67.24;101668.00;5026373;28;20037;-81
2023/10/10 13:28:31;;;;;;;4.90;2.70;;;;;;;21.68;65.28;101671.06;5012687;28;20041;-82
2023/10/10 13:30:57;;;;;;;7.73;3.30;;;;;;;21.71;64.21;101663.88;5011759;28;20034;-81
2023/10/10 13:33:23;;;;;;;5.93;2.88;;;;;;;21.75;65.68;101665.41;5012485;28;20165;-81
2023/10/10 13:35:48;;;;;;;4.83;2.80;;;;;;;21.81;65.32;101672.19;5012886;28;20061;-80
2023/10/10 13:38:17;;;;;;;5.20;2.60;;;;;;;21.83;62.52;101664.19;5016729;28;20050;-81
2023/10/10 13:40:46;;;;;;;4.13;2.53;;;;;;;21.89;66.63;101669.16;5032126;28;20032;-80
2023/10/10 13:43:18;;;;;;;3.85;2.50;;;;;;;21.90;67.47;101666.41;5031106;28;20049;-80
2023/10/10 13:45:51;;;;;;;3.78;2.20;;;;;;;21.94;64.34;101668.91;5035153;28;20021;-80
2023/10/10 13:48:21;;;;;;;4.50;2.55;;;;;;;21.94;66.39;101663.63;5032973;28;20046;-80
2023/10/10 13:50:50;;;;;;;4.88;2.60;;;;;;;21.97;65.34;101660.84;5033361;28;20021;-79
2023/10/10 13:53:16;;;;;;;4.43;2.75;;;;;;;21.95;62.96;101662.72;5032829;28;20044;-80
2023/10/10 13:55:43;;;;;;;5.80;2.90;;;;;;;21.91;63.08;101662.00;5035462;28;20470;-80
2023/10/10 13:58:11;;;;;;;4.45;2.67;;;;;;;21.91;66.80;101660.22;5034613;28;20032;-80
2023/10/10 14:00:39;;;;;;;6.25;2.75;;;;;;;21.88;64.04;101651.59;5035715;28;20021;-80
2023/10/10 14:03:04;;;;;;;6.68;3.20;;;;;;;21.84;61.17;101650.91;5035472;28;20028;-80
2023/10/10 14:05:37;;;;;;;7.07;3.43;;;;;;;21.82;61.52;101644.81;5035157;28;20025;-80
2023/10/10 14:08:03;;;;;;;5.43;2.95;;;;;;;21.83;64.41;101641.25;5035730;28;20045;-80
2023/10/10 14:10:38;;;;;;;5.50;2.97;;;;;;;21.85;66.49;101635.88;5035500;28;20028;-80
2023/10/10 14:13:18;;;;;;;4.05;2.60;;;;;;;21.87;67.78;101639.31;5034606;28;20021;-80
2023/10/10 14:15:54;;;;;;;6.70;3.25;;;;;;;21.84;64.40;101631.56;5035549;28;20058;-81
2023/10/10 14:18:30;;;;;;;5.35;2.85;;;;;;;21.84;65.38;101639.47;5034269;28;20474;-80
2023/10/10 14:21:01;;;;;;;3.92;2.58;;;;;;;21.81;65.04;101629.91;5035282;28;20565;-80
2023/10/10 14:23:28;;;;;;;4.75;2.75;;;;;;;21.80;64.20;101635.28;5032175;28;20079;-80
2023/10/10 14:26:12;;;;;;;5.60;2.90;;;;;;;21.77;64.55;101630.13;5018772;28;20030;-80
2023/10/10 14:28:41;;;;;;;5.88;3.00;;;;;;;21.76;65.44;101629.28;5015197;28;20084;-80
2023/10/10 14:31:13;;;;;;;5.18;2.60;;;;;;;21.73;63.75;101626.78;5017273;28;20081;-80
2023/10/10 14:33:44;;;;;;;4.03;2.45;;;;;;;21.72;61.94;101623.31;5027551;28;20037;-80
2023/10/10 14:36:13;;;;;;;5.05;2.70;;;;;;;21.73;60.90;101618.88;5010443;28;20091;-80
2023/10/10 14:38:47;;;;;;;5.53;2.70;;;;;;;21.76;63.87;101618.72;5013815;28;20029;-80
2023/10/10 14:41:12;;;;;;;5.05;2.78;;;;;;;21.77;63.41;101611.66;5022427;28;20056;-80
2023/10/10 14:43:40;;;;;;;3.23;2.40;;;;;;;21.76;63.05;101610.81;5034101;28;20049;-80
2023/10/10 14:46:09;;;;;;;3.58;2.38;;;;;;;21.79;65.80;101609.78;5034533;28;20516;-80
2023/10/10 14:48:34;;;;;;;2.88;2.05;;;;;;;21.81;66.54;101598.19;5033955;28;20048;-80
2023/10/10 14:51:05;;;;;;;3.43;2.33;;;;;;;21.87;65.25;101600.53;5034599;28;20018;-79
2023/10/10 14:53:34;;;;;;;4.70;2.30;;;;;;;21.89;61.44;101596.03;5033369;28;20029;-80